Time;durP1;ratioP1;P1;durP2;ratioP2;P2;SDS_P1;SDS_P2;PMS_P1;PMS_P2;Temp;Humidity;BMP_temperature;BMP_pressure;BME280_temperature;BME280_humidity;BME280_pressure;Samples;Min_cycle;Max_cycle;Signal;HPM_P1;HPM_P2
2021/01/12 00:02:01;;;;;;;18.67;10.70;;;6.60;99.90;;;;;;5110991;28;20209;-78
2021/01/12 00:04:27;;;;;;;16.67;10.83;;;6.60;99.90;;;;;;5114619;28;20201;-75
2021/01/12 00:06:53;;;;;;;16.27;9.70;;;6.70;99.90;;;;;;5114443;28;20217;-77
2021/01/12 00:09:21;;;;;;;15.97;10.63;;;6.60;99.90;;;;;;5114669;28;20204;-77
2021/01/12 00:11:47;;;;;;;13.80;10.63;;;6.60;99.90;;;;;;5101475;28;20199;-76
2021/01/12 00:16:54;;;;;;;17.53;10.43;;;6.50;99.90;;;;;;5113410;28;20201;-77
2021/01/12 00:19:21;;;;;;;18.37;10.77;;;6.70;99.90;;;;;;5114494;28;20205;-78
2021/01/12 00:21:47;;;;;;;14.23;10.17;;;6.70;99.90;;;;;;5103453;28;20285;-77
2021/01/12 00:24:13;;;;;;;14.47;9.67;;;6.70;99.90;;;;;;5108578;28;20607;-77
2021/01/12 00:26:41;;;;;;;11.90;9.40;;;6.60;99.90;;;;;;5094245;28;20309;-78
2021/01/12 00:29:07;;;;;;;18.97;9.77;;;6.70;99.90;;;;;;5094328;28;20582;-78
2021/01/12 00:31:38;;;;;;;15.70;9.40;;;6.70;99.90;;;;;;5101895;28;20338;-79
2021/01/12 00:34:04;;;;;;;16.97;9.53;;;6.80;99.90;;;;;;5099686;28;20203;-77
2021/01/12 00:36:31;;;;;;;12.30;9.10;;;6.70;99.90;;;;;;5108096;28;20251;-77
2021/01/12 00:38:57;;;;;;;15.77;9.23;;;6.70;99.90;;;;;;5094272;28;20210;-77
2021/01/12 00:41:24;;;;;;;13.73;8.23;;;6.70;99.90;;;;;;5098101;28;20204;-77
2021/01/12 00:43:51;;;;;;;14.70;9.20;;;6.80;99.90;;;;;;5103910;28;20555;-76
2021/01/12 00:46:18;;;;;;;9.90;7.93;;;6.80;99.90;;;;;;5108035;28;20600;-76
2021/01/12 00:48:44;;;;;;;10.70;7.73;;;6.80;99.90;;;;;;5102720;28;20309;-77
2021/01/12 00:51:10;;;;;;;11.00;6.97;;;6.80;99.90;;;;;;5098532;28;20611;-77
2021/01/12 00:53:37;;;;;;;11.87;7.60;;;6.80;99.90;;;;;;5097986;28;20285;-76
2021/01/12 00:56:11;;;;;;;10.87;8.13;;;6.80;99.90;;;;;;5103487;28;20197;-79
2021/01/12 00:58:38;;;;;;;10.00;7.93;;;6.70;99.90;;;;;;5097487;28;20201;-77
2021/01/12 01:01:05;;;;;;;9.00;7.40;;;6.80;99.90;;;;;;5094183;28;20297;-77
2021/01/12 01:03:32;;;;;;;9.73;7.80;;;6.80;99.90;;;;;;5094346;28;20206;-77
2021/01/12 01:05:58;;;;;;;10.33;7.60;;;6.80;99.90;;;;;;5107064;28;20233;-77
2021/01/12 01:08:24;;;;;;;10.40;7.53;;;6.90;99.90;;;;;;5094074;28;20202;-77
2021/01/12 01:10:51;;;;;;;7.43;6.53;;;6.80;99.90;;;;;;5093764;28;20221;-77
2021/01/12 01:13:17;;;;;;;9.80;7.50;;;6.90;99.90;;;;;;5093386;28;20286;-77
2021/01/12 01:15:44;;;;;;;9.60;7.97;;;6.80;99.90;;;;;;5096605;28;20338;-76
2021/01/12 01:18:11;;;;;;;8.63;7.60;;;6.80;99.90;;;;;;5104305;28;20301;-77
2021/01/12 01:20:37;;;;;;;12.77;8.93;;;6.80;99.90;;;;;;5093198;28;20696;-77
2021/01/12 01:23:03;;;;;;;9.50;8.50;;;6.80;99.90;;;;;;5093865;28;20201;-79
2021/01/12 01:25:30;;;;;;;8.93;7.80;;;6.80;99.90;;;;;;5093793;28;20289;-78
2021/01/12 01:27:56;;;;;;;8.20;7.40;;;6.80;99.90;;;;;;5106628;28;20602;-78
2021/01/12 01:30:23;;;;;;;8.47;7.60;;;6.80;99.90;;;;;;5105876;28;20204;-78
2021/01/12 01:32:49;;;;;;;11.20;8.17;;;6.80;99.90;;;;;;5095483;28;20208;-77
2021/01/12 01:35:16;;;;;;;10.20;8.43;;;6.80;99.90;;;;;;5093556;28;20212;-77
2021/01/12 01:37:43;;;;;;;9.77;7.90;;;6.80;99.90;;;;;;5095285;28;20798;-77
2021/01/12 01:40:10;;;;;;;9.83;8.17;;;6.90;99.90;;;;;;5105085;28;20733;-77
2021/01/12 01:42:37;;;;;;;11.63;8.87;;;6.90;99.90;;;;;;5094016;28;20282;-78
2021/01/12 01:45:07;;;;;;;10.27;8.50;;;6.80;99.90;;;;;;5106866;28;20198;-78
2021/01/12 01:47:34;;;;;;;10.33;8.73;;;6.90;99.90;;;;;;5093196;28;20220;-78
2021/01/12 01:50:01;;;;;;;10.37;8.87;;;6.90;99.90;;;;;;5112821;28;20197;-78
2021/01/12 01:52:29;;;;;;;10.90;8.73;;;6.90;99.90;;;;;;5101579;28;20661;-78
2021/01/12 01:54:58;;;;;;;10.23;8.83;;;6.90;99.90;;;;;;5097486;28;20194;-78
2021/01/12 01:57:24;;;;;;;10.90;8.17;;;7.00;99.90;;;;;;5092907;28;20346;-77
2021/01/12 01:59:53;;;;;;;9.10;7.30;;;7.10;99.90;;;;;;5093199;28;20212;-76
2021/01/12 02:02:19;;;;;;;9.07;7.97;;;7.10;99.90;;;;;;5112022;28;20198;-76
2021/01/12 02:04:47;;;;;;;9.40;7.13;;;7.10;99.90;;;;;;5113419;28;20212;-76
2021/01/12 02:07:15;;;;;;;10.50;7.53;;;7.20;99.90;;;;;;5112845;28;20213;-76
2021/01/12 02:09:48;;;;;;;9.83;7.70;;;7.20;99.90;;;;;;5110161;28;20209;-76
2021/01/12 02:12:22;;;;;;;10.07;6.70;;;7.20;99.90;;;;;;5109098;28;20210;-77
2021/01/12 02:14:53;;;;;;;9.47;6.77;;;7.20;99.90;;;;;;5101916;28;20190;-78
2021/01/12 02:17:22;;;;;;;9.27;6.43;;;7.30;99.90;;;;;;5110342;28;20208;-77
2021/01/12 02:19:53;;;;;;;9.00;6.10;;;7.30;99.90;;;;;;5092611;28;20199;-76
2021/01/12 02:22:22;;;;;;;6.90;5.83;;;7.30;99.90;;;;;;5106817;28;20728;-77
2021/01/12 02:24:50;;;;;;;8.03;5.43;;;7.40;99.90;;;;;;5093022;28;20212;-76
2021/01/12 02:27:20;;;;;;;7.80;5.63;;;7.50;99.90;;;;;;5092763;28;20244;-78
2021/01/12 02:29:49;;;;;;;7.27;5.20;;;7.50;99.90;;;;;;5092508;28;20210;-76
2021/01/12 02:32:16;;;;;;;7.40;5.33;;;7.40;99.90;;;;;;5093070;28;20202;-77
2021/01/12 02:34:45;;;;;;;7.03;5.53;;;7.40;99.90;;;;;;5092412;28;20634;-76
2021/01/12 02:37:14;;;;;;;7.67;5.50;;;7.40;99.90;;;;;;5104946;28;20292;-76
2021/01/12 02:39:42;;;;;;;8.07;5.20;;;7.50;99.90;;;;;;5100741;28;20648;-77
2021/01/12 02:42:17;;;;;;;8.63;5.23;;;7.50;99.90;;;;;;5116044;28;20228;-76
2021/01/12 02:44:45;;;;;;;8.43;5.13;;;7.50;99.90;;;;;;5102082;28;20200;-77
2021/01/12 02:47:11;;;;;;;9.13;5.50;;;7.50;99.90;;;;;;5116517;28;20221;-77
2021/01/12 02:49:38;;;;;;;8.03;4.97;;;7.50;99.90;;;;;;5116255;28;20589;-78
2021/01/12 02:52:05;;;;;;;8.33;5.27;;;7.60;99.90;;;;;;5107318;28;20212;-78
2021/01/12 02:54:32;;;;;;;8.30;4.97;;;7.60;99.90;;;;;;5113009;28;20193;-77
2021/01/12 02:56:59;;;;;;;6.87;4.57;;;7.60;99.90;;;;;;5116125;28;20228;-77
2021/01/12 02:59:26;;;;;;;5.63;4.30;;;7.70;99.90;;;;;;5116009;28;20580;-77
2021/01/12 03:01:52;;;;;;;4.90;4.13;;;7.70;99.90;;;;;;5116046;28;20273;-77
2021/01/12 03:04:19;;;;;;;4.83;4.03;;;7.70;99.90;;;;;;5113502;28;20293;-76
2021/01/12 03:06:45;;;;;;;6.63;5.10;;;7.70;99.90;;;;;;5096042;28;20229;-76
2021/01/12 03:09:11;;;;;;;9.70;5.50;;;7.70;99.90;;;;;;5109878;28;20715;-76
2021/01/12 03:11:38;;;;;;;8.50;5.03;;;7.70;99.90;;;;;;5095932;28;20208;-76
2021/01/12 03:14:04;;;;;;;7.20;4.60;;;7.80;99.90;;;;;;5109032;28;20274;-76
2021/01/12 03:16:34;;;;;;;9.20;5.50;;;7.80;99.90;;;;;;5096679;28;20293;-76
2021/01/12 03:19:01;;;;;;;7.07;5.00;;;7.80;99.90;;;;;;5107589;28;20202;-76
2021/01/12 03:21:28;;;;;;;7.30;5.10;;;7.80;99.90;;;;;;5115879;28;20213;-77
2021/01/12 03:23:54;;;;;;;7.78;4.80;;;7.80;99.90;;;;;;5105923;28;20209;-76
2021/01/12 03:26:21;;;;;;;10.37;5.40;;;7.90;99.90;;;;;;5109836;28;20225;-76
2021/01/12 03:28:47;;;;;;;7.60;4.73;;;7.80;99.90;;;;;;5103076;28;20193;-77
2021/01/12 03:31:14;;;;;;;8.67;5.00;;;7.90;99.90;;;;;;5115814;28;20286;-76
2021/01/12 03:33:41;;;;;;;6.47;5.10;;;7.90;99.90;;;;;;5115648;28;20266;-76
2021/01/12 03:36:08;;;;;;;6.00;4.20;;;7.90;99.90;;;;;;5103611;28;20214;-76
2021/01/12 03:38:34;;;;;;;7.37;4.87;;;7.90;99.90;;;;;;5112761;28;20189;-76
2021/01/12 03:41:01;;;;;;;5.60;4.07;;;8.00;99.90;;;;;;5115302;28;20259;-76
2021/01/12 03:43:27;;;;;;;7.40;4.33;;;8.00;99.90;;;;;;5113193;28;20280;-76
2021/01/12 03:45:53;;;;;;;6.45;4.60;;;7.90;99.90;;;;;;5094838;28;20222;-76
2021/01/12 03:48:21;;;;;;;4.10;3.63;;;7.90;99.90;;;;;;5109634;28;20289;-78
2021/01/12 03:50:48;;;;;;;6.80;3.70;;;7.90;99.90;;;;;;5114122;28;20623;-76
2021/01/12 03:53:16;;;;;;;5.87;3.40;;;7.90;99.90;;;;;;5102215;28;20214;-76
2021/01/12 03:55:42;;;;;;;5.30;3.70;;;7.90;99.90;;;;;;5100071;28;20193;-76
2021/01/12 03:58:09;;;;;;;4.33;3.53;;;7.90;99.90;;;;;;5115386;28;20202;-77
2021/01/12 04:00:35;;;;;;;5.53;3.27;;;8.00;99.90;;;;;;5098217;28;20208;-76
2021/01/12 04:03:02;;;;;;;4.30;3.27;;;7.90;99.90;;;;;;5094841;28;20202;-76
2021/01/12 04:05:29;;;;;;;4.33;3.43;;;7.90;99.90;;;;;;5109347;28;20212;-76
2021/01/12 04:07:59;;;;;;;4.57;3.73;;;7.90;99.90;;;;;;5108197;28;20201;-77
2021/01/12 04:10:28;;;;;;;6.37;2.80;;;7.90;99.90;;;;;;5094906;28;20630;-76
2021/01/12 04:12:54;;;;;;;4.35;3.08;;;7.90;99.90;;;;;;5108808;28;20281;-76
2021/01/12 04:15:20;;;;;;;4.00;2.70;;;8.00;99.90;;;;;;5106359;28;20204;-77
2021/01/12 04:17:47;;;;;;;2.85;2.42;;;7.90;99.90;;;;;;5114749;28;20205;-76
2021/01/12 04:20:15;;;;;;;3.47;3.13;;;7.90;99.90;;;;;;5114816;28;20308;-76
2021/01/12 04:22:41;;;;;;;5.10;3.10;;;7.90;99.90;;;;;;5112354;28;20288;-76
2021/01/12 04:25:10;;;;;;;3.50;2.63;;;7.90;99.90;;;;;;5102908;28;20189;-76
2021/01/12 04:27:36;;;;;;;4.80;2.70;;;7.90;99.90;;;;;;5099267;28;20226;-77
2021/01/12 04:30:04;;;;;;;3.80;2.80;;;7.90;99.90;;;;;;5094384;28;20202;-76
2021/01/12 04:32:30;;;;;;;3.90;2.87;;;7.90;99.90;;;;;;5094257;28;20210;-77
2021/01/12 04:34:57;;;;;;;4.37;3.20;;;7.90;99.90;;;;;;5094010;28;20194;-77
2021/01/12 04:37:23;;;;;;;5.00;3.20;;;7.90;99.90;;;;;;5094326;28;20206;-76
2021/01/12 04:39:49;;;;;;;4.63;3.30;;;8.00;99.90;;;;;;5111884;28;20201;-76
2021/01/12 04:42:17;;;;;;;7.45;3.85;;;7.90;99.90;;;;;;5114258;28;20210;-77
2021/01/12 04:44:43;;;;;;;4.63;3.38;;;7.90;99.90;;;;;;5113569;28;20563;-76
2021/01/12 04:47:10;;;;;;;5.90;3.78;;;8.00;99.90;;;;;;5113939;28;20220;-76
2021/01/12 04:49:39;;;;;;;4.83;3.20;;;8.00;99.90;;;;;;5114148;28;20230;-78
2021/01/12 04:52:06;;;;;;;5.43;3.90;;;8.00;99.90;;;;;;5107517;28;20553;-76
2021/01/12 04:54:33;;;;;;;6.73;4.73;;;8.00;99.90;;;;;;5106610;28;20265;-75
2021/01/12 04:56:59;;;;;;;6.80;4.47;;;8.00;99.90;;;;;;5099749;28;20201;-75
2021/01/12 04:59:29;;;;;;;7.13;5.10;;;8.00;99.90;;;;;;5114204;28;20250;-76
2021/01/12 05:01:56;;;;;;;6.80;4.57;;;8.00;99.90;;;;;;5096192;28;20206;-76
2021/01/12 05:04:23;;;;;;;6.60;4.55;;;8.10;99.90;;;;;;5108046;28;20288;-76
2021/01/12 05:06:49;;;;;;;6.63;4.28;;;8.10;99.90;;;;;;5093362;28;20226;-76
2021/01/12 05:09:21;;;;;;;6.32;4.22;;;8.10;99.90;;;;;;5111518;28;20262;-75
2021/01/12 05:11:48;;;;;;;8.50;5.20;;;8.10;99.90;;;;;;5103362;28;20198;-76
2021/01/12 05:14:16;;;;;;;8.52;5.53;;;8.10;99.90;;;;;;5093803;28;20212;-75
2021/01/12 05:16:48;;;;;;;8.53;4.90;;;8.10;99.90;;;;;;5093096;28;20661;-75
2021/01/12 05:19:20;;;;;;;5.93;4.57;;;8.10;99.90;;;;;;5109808;28;20204;-76
2021/01/12 05:21:47;;;;;;;8.77;4.77;;;8.20;99.90;;;;;;5105314;28;20202;-76
2021/01/12 05:24:18;;;;;;;6.23;4.30;;;8.20;99.90;;;;;;5093249;28;20202;-75
2021/01/12 05:26:44;;;;;;;7.37;4.43;;;8.20;99.90;;;;;;5101234;28;20652;-76
2021/01/12 05:29:11;;;;;;;5.60;3.72;;;8.20;99.90;;;;;;5114075;28;20205;-76
2021/01/12 05:31:38;;;;;;;6.17;3.53;;;8.20;99.90;;;;;;5093667;28;20305;-76
2021/01/12 05:34:09;;;;;;;5.17;3.60;;;8.20;99.90;;;;;;5105891;28;20555;-76
2021/01/12 05:36:47;;;;;;;6.85;3.63;;;8.20;99.90;;;;;;5113611;28;20209;-76
2021/01/12 05:39:17;;;;;;;3.30;3.00;;;8.20;99.90;;;;;;5113820;28;20248;-76
2021/01/12 05:41:45;;;;;;;3.08;2.47;;;8.20;99.90;;;;;;5108145;28;20590;-77
2021/01/12 05:44:15;;;;;;;4.27;2.40;;;8.20;99.90;;;;;;5093310;28;20216;-76
2021/01/12 05:46:44;;;;;;;7.50;2.40;;;8.20;99.90;;;;;;5107441;28;20218;-77
2021/01/12 05:49:12;;;;;;;2.33;2.13;;;8.30;99.90;;;;;;5103619;28;20209;-77
2021/01/12 05:51:44;;;;;;;8.20;2.87;;;8.40;99.90;;;;;;5113098;28;20355;-77
2021/01/12 05:54:21;;;;;;;5.00;2.40;;;8.30;99.90;;;;;;5103321;28;20202;-77
2021/01/12 05:56:49;;;;;;;4.73;2.10;;;8.40;99.90;;;;;;5110163;28;20243;-77
2021/01/12 05:59:23;;;;;;;2.65;2.00;;;8.50;99.90;;;;;;5113308;28;20205;-78
2021/01/12 06:01:52;;;;;;;3.65;2.25;;;8.50;99.90;;;;;;5100756;28;20194;-78
2021/01/12 06:04:20;;;;;;;6.40;2.40;;;8.40;99.90;;;;;;5098060;28;20198;-79
2021/01/12 06:06:48;;;;;;;4.72;1.80;;;8.70;99.90;;;;;;5113235;28;20221;-79
2021/01/12 06:09:16;;;;;;;3.27;1.70;;;8.50;99.90;;;;;;5109473;28;20202;-79
2021/01/12 06:11:44;;;;;;;3.90;1.90;;;8.60;99.90;;;;;;5093068;28;20262;-78
2021/01/12 06:14:12;;;;;;;6.07;1.80;;;8.50;99.90;;;;;;5096593;28;20206;-78
2021/01/12 06:16:40;;;;;;;3.07;1.50;;;8.60;99.90;;;;;;5117050;28;20206;-78
2021/01/12 06:19:10;;;;;;;3.88;1.90;;;8.60;99.90;;;;;;5116112;28;20217;-78
2021/01/12 06:22:04;;;;;;;2.65;1.40;;;8.70;99.90;;;;;;5104202;28;20200;-79
2021/01/12 06:24:40;;;;;;;3.50;1.33;;;8.50;99.90;;;;;;5099127;28;20281;-79
2021/01/12 06:27:08;;;;;;;2.97;1.30;;;8.60;99.90;;;;;;5096206;28;20214;-79
2021/01/12 06:29:34;;;;;;;2.80;1.35;;;8.60;99.90;;;;;;5113766;28;20202;-79
2021/01/12 06:32:01;;;;;;;3.47;1.50;;;8.50;99.90;;;;;;5116780;28;20231;-78
2021/01/12 06:34:29;;;;;;;4.82;1.60;;;8.70;99.90;;;;;;5116446;28;20653;-78
2021/01/12 06:36:58;;;;;;;4.47;1.70;;;8.60;99.90;;;;;;5116589;28;20220;-79
2021/01/12 06:39:32;;;;;;;3.47;1.40;;;8.60;99.90;;;;;;5116521;28;20297;-78
2021/01/12 06:41:58;;;;;;;3.63;1.50;;;8.80;99.90;;;;;;5116492;28;20213;-80
2021/01/12 06:44:26;;;;;;;3.92;1.30;;;8.60;99.90;;;;;;5103293;28;20252;-78
2021/01/12 06:46:54;;;;;;;3.42;1.70;;;8.70;99.90;;;;;;5101284;28;20256;-78
2021/01/12 06:49:25;;;;;;;5.80;1.95;;;8.70;99.90;;;;;;5104207;28;20198;-80
2021/01/12 06:52:00;;;;;;;5.72;2.13;;;8.70;99.90;;;;;;5114750;28;20190;-80
2021/01/12 06:54:34;;;;;;;3.03;1.77;;;8.70;99.90;;;;;;5104390;28;20205;-79
2021/01/12 06:57:04;;;;;;;2.25;1.85;;;8.70;99.90;;;;;;5114721;28;20585;-79
2021/01/12 06:59:42;;;;;;;3.78;2.15;;;8.70;99.90;;;;;;5104763;28;20198;-80
2021/01/12 07:02:14;;;;;;;5.27;2.47;;;8.70;99.90;;;;;;5110971;28;20205;-79
2021/01/12 07:04:41;;;;;;;4.82;2.33;;;8.70;99.90;;;;;;5116476;28;20209;-80
2021/01/12 07:07:13;;;;;;;4.17;2.53;;;8.70;99.90;;;;;;5101296;28;20223;-80
2021/01/12 07:09:45;;;;;;;2.97;2.53;;;8.70;99.90;;;;;;5116168;28;20200;-79
2021/01/12 07:12:13;;;;;;;4.45;2.25;;;8.70;99.90;;;;;;5116281;28;20193;-78
2021/01/12 07:14:46;;;;;;;5.90;3.63;;;8.60;99.90;;;;;;5102037;28;20299;-78
2021/01/12 07:17:13;;;;;;;3.90;3.00;;;8.70;99.90;;;;;;5115849;28;20590;-79
2021/01/12 07:19:39;;;;;;;8.82;2.95;;;8.70;99.90;;;;;;5101468;28;20678;-78
2021/01/12 07:22:10;;;;;;;6.22;3.70;;;8.70;99.90;;;;;;5104207;28;20683;-78
2021/01/12 07:24:39;;;;;;;5.78;3.58;;;8.70;99.90;;;;;;5109614;28;20629;-79
2021/01/12 07:27:07;;;;;;;4.97;3.53;;;8.60;99.90;;;;;;5095554;28;20222;-79
2021/01/12 07:29:47;;;;;;;7.38;3.70;;;8.70;99.90;;;;;;5109822;28;20216;-79
2021/01/12 07:32:30;;;;;;;7.63;3.42;;;8.70;99.90;;;;;;5095589;28;20206;-78
2021/01/12 07:35:00;;;;;;;7.35;4.15;;;8.70;99.90;;;;;;5114438;28;20200;-78
2021/01/12 07:37:33;;;;;;;7.53;4.55;;;8.70;99.90;;;;;;5115723;28;20205;-78
2021/01/12 07:39:59;;;;;;;7.88;4.03;;;8.60;99.90;;;;;;5096778;28;20364;-78
2021/01/12 07:42:26;;;;;;;11.75;4.13;;;8.70;99.90;;;;;;5095459;28;20210;-79
2021/01/12 07:44:52;;;;;;;7.13;4.47;;;8.70;99.90;;;;;;5098137;28;20197;-78
2021/01/12 07:47:19;;;;;;;11.15;5.43;;;8.70;99.90;;;;;;5115354;28;20221;-79
2021/01/12 07:49:49;;;;;;;9.02;5.53;;;8.70;99.90;;;;;;5114851;28;20570;-79
2021/01/12 07:52:17;;;;;;;8.73;5.93;;;8.70;99.90;;;;;;5115534;28;20194;-80
2021/01/12 07:54:45;;;;;;;13.63;6.32;;;8.80;99.90;;;;;;5100819;28;20205;-81
2021/01/12 07:57:12;;;;;;;14.52;6.22;;;8.70;99.90;;;;;;5100965;28;20648;-80
2021/01/12 07:59:39;;;;;;;11.23;6.45;;;8.70;99.90;;;;;;5115150;28;20570;-81
2021/01/12 08:02:06;;;;;;;14.48;7.18;;;8.70;99.90;;;;;;5114904;28;20206;-82
2021/01/12 08:04:33;;;;;;;15.80;7.47;;;8.80;99.90;;;;;;5114893;28;20205;-80
2021/01/12 08:07:00;;;;;;;16.13;7.75;;;8.70;99.90;;;;;;5114962;28;20685;-80
2021/01/12 08:09:27;;;;;;;21.05;9.30;;;8.80;99.90;;;;;;5109530;28;20198;-80
2021/01/12 08:12:00;;;;;;;19.65;8.85;;;8.70;99.90;;;;;;5105919;28;20206;-80
2021/01/12 08:14:26;;;;;;;14.50;8.43;;;8.70;99.90;;;;;;5114872;28;20631;-80
2021/01/12 08:16:54;;;;;;;17.08;9.00;;;8.80;99.90;;;;;;5114856;28;20205;-81
2021/01/12 08:19:24;;;;;;;15.90;9.45;;;8.80;99.90;;;;;;5114813;28;20213;-80
2021/01/12 08:21:52;;;;;;;17.67;10.73;;;8.90;99.90;;;;;;5105254;28;20206;-82
2021/01/12 08:24:25;;;;;;;15.90;10.18;;;8.80;99.90;;;;;;5095944;28;20209;-80
2021/01/12 08:26:52;;;;;;;17.05;10.38;;;8.80;99.90;;;;;;5114710;28;20213;-80
2021/01/12 08:29:24;;;;;;;23.33;10.70;;;8.80;99.90;;;;;;5099737;28;20205;-80
2021/01/12 08:31:58;;;;;;;16.80;9.35;;;8.90;99.90;;;;;;5101763;28;20568;-81
2021/01/12 08:34:26;;;;;;;12.77;7.70;;;8.70;99.90;;;;;;5113896;28;20189;-80
2021/01/12 08:36:55;;;;;;;12.23;5.60;;;8.80;99.90;;;;;;5094049;28;20293;-79
2021/01/12 08:39:23;;;;;;;8.32;4.55;;;8.70;99.90;;;;;;5104485;28;20281;-79
2021/01/12 08:41:51;;;;;;;12.70;4.32;;;8.80;99.90;;;;;;5105625;28;20208;-80
2021/01/12 08:44:20;;;;;;;12.80;5.63;;;8.60;99.90;;;;;;5101457;28;20202;-79
2021/01/12 08:46:47;;;;;;;8.07;4.90;;;8.60;99.90;;;;;;5110996;28;20270;-79
2021/01/12 08:49:14;;;;;;;8.03;4.77;;;8.60;99.90;;;;;;5101683;28;20214;-80
2021/01/12 08:51:42;;;;;;;9.15;4.70;;;8.50;99.90;;;;;;5109667;28;20201;-79
2021/01/12 08:54:14;;;;;;;11.63;5.07;;;8.50;99.90;;;;;;5112658;28;20207;-75
2021/01/12 08:56:40;;;;;;;11.77;5.20;;;8.50;99.90;;;;;;5109150;28;20443;-78
2021/01/12 08:59:08;;;;;;;11.20;4.85;;;8.50;99.90;;;;;;5093112;28;20220;-79
2021/01/12 09:01:37;;;;;;;12.93;5.15;;;8.50;99.90;;;;;;5108427;28;20289;-80
2021/01/12 09:04:06;;;;;;;9.05;4.65;;;8.50;99.90;;;;;;5098771;28;20668;-80
2021/01/12 09:06:33;;;;;;;15.73;6.22;;;8.40;99.90;;;;;;5113869;28;20222;-79
2021/01/12 09:09:10;;;;;;;10.27;4.40;;;8.50;99.90;;;;;;5113232;28;20200;-79
2021/01/12 09:11:45;;;;;;;18.08;7.13;;;8.40;99.90;;;;;;5104990;28;20198;-79
2021/01/12 09:14:11;;;;;;;9.55;3.85;;;8.40;99.90;;;;;;5095298;28;20250;-79
2021/01/12 09:16:39;;;;;;;4.93;2.38;;;8.40;99.90;;;;;;5113573;28;20208;-79
2021/01/12 09:19:17;;;;;;;7.55;3.00;;;8.30;99.90;;;;;;5113852;28;20197;-79
2021/01/12 09:21:44;;;;;;;6.40;2.78;;;8.40;99.90;;;;;;5113620;28;20189;-79
2021/01/12 09:24:16;;;;;;;5.03;2.70;;;8.30;99.90;;;;;;5113341;28;20208;-79
2021/01/12 09:26:43;;;;;;;7.63;2.73;;;8.30;99.90;;;;;;5113919;28;20224;-79
2021/01/12 09:29:10;;;;;;;7.40;3.10;;;8.30;99.90;;;;;;5113428;28;20359;-79
2021/01/12 09:31:47;;;;;;;9.07;3.13;;;8.40;99.90;;;;;;5113589;28;20197;-80
2021/01/12 09:34:20;;;;;;;10.48;5.65;;;8.40;99.90;;;;;;5100293;28;20202;-79
2021/01/12 09:36:47;;;;;;;9.38;4.63;;;8.50;99.90;;;;;;5099919;28;20194;-79
2021/01/12 09:39:14;;;;;;;9.23;3.45;;;8.50;99.90;;;;;;5100927;28;20285;-79
2021/01/12 09:41:40;;;;;;;8.93;5.43;;;8.60;99.90;;;;;;5097469;28;20235;-82
2021/01/12 09:44:07;;;;;;;4.93;3.63;;;8.60;99.90;;;;;;5102524;28;20602;-79
2021/01/12 09:46:34;;;;;;;6.30;3.40;;;8.70;99.90;;;;;;5110144;28;20224;-79
2021/01/12 09:49:01;;;;;;;10.00;3.80;;;8.70;99.90;;;;;;5115286;28;20201;-79
2021/01/12 09:51:28;;;;;;;6.10;3.55;;;8.80;99.90;;;;;;5103026;28;20198;-78
2021/01/12 09:53:55;;;;;;;4.30;3.10;;;8.80;99.90;;;;;;5110292;28;20532;-78
2021/01/12 09:56:21;;;;;;;4.43;2.95;;;8.80;99.90;;;;;;5096743;28;20235;-79
2021/01/12 09:58:50;;;;;;;9.63;3.78;;;8.80;99.90;;;;;;5111700;28;20286;-79
2021/01/12 10:01:16;;;;;;;8.88;3.25;;;8.70;99.90;;;;;;5101160;28;20190;-79
2021/01/12 10:03:43;;;;;;;5.57;2.60;;;8.80;99.90;;;;;;5097021;28;20256;-81
2021/01/12 10:06:16;;;;;;;8.10;2.38;;;8.70;99.90;;;;;;5103306;28;20193;-78
2021/01/12 10:08:45;;;;;;;9.57;3.17;;;8.60;99.90;;;;;;5117035;28;20198;-78
2021/01/12 10:11:12;;;;;;;4.13;2.55;;;8.60;99.90;;;;;;5096736;28;20210;-78
2021/01/12 10:13:38;;;;;;;2.95;2.55;;;8.60;99.90;;;;;;5096895;28;20206;-77
2021/01/12 10:16:05;;;;;;;6.47;3.00;;;8.50;99.90;;;;;;5096834;28;20200;-78
2021/01/12 10:18:31;;;;;;;8.88;3.10;;;8.40;99.90;;;;;;5096984;28;20213;-79
2021/01/12 10:20:58;;;;;;;8.20;4.13;;;8.40;99.90;;;;;;5098835;28;20285;-77
2021/01/12 10:23:25;;;;;;;6.10;5.33;;;8.40;99.90;;;;;;5108316;28;20212;-77
2021/01/12 10:25:53;;;;;;;13.13;6.87;;;8.40;99.90;;;;;;5096591;28;20288;-78
2021/01/12 10:28:20;;;;;;;13.18;6.97;;;8.40;99.90;;;;;;5096345;28;20594;-77
2021/01/12 10:30:47;;;;;;;11.25;6.72;;;8.40;99.90;;;;;;5096339;28;20672;-77
2021/01/12 10:33:14;;;;;;;10.35;7.00;;;8.40;99.90;;;;;;5101398;28;20672;-76
2021/01/12 10:35:40;;;;;;;12.32;6.28;;;8.30;99.90;;;;;;5105842;28;20206;-77
2021/01/12 10:38:06;;;;;;;8.40;5.00;;;8.20;99.90;;;;;;5096944;28;20294;-76
2021/01/12 10:40:33;;;;;;;8.60;4.37;;;8.10;99.90;;;;;;5096527;28;20542;-77
2021/01/12 10:43:01;;;;;;;5.17;4.00;;;8.10;99.90;;;;;;5096766;28;20210;-77
2021/01/12 10:45:27;;;;;;;7.43;3.50;;;7.90;99.90;;;;;;5115175;28;20717;-77
2021/01/12 10:47:56;;;;;;;9.13;3.93;;;7.90;99.90;;;;;;5115163;28;20664;-77
2021/01/12 10:50:22;;;;;;;5.50;3.55;;;7.80;99.90;;;;;;5109427;28;20202;-77
2021/01/12 10:52:49;;;;;;;6.30;3.00;;;7.90;99.90;;;;;;5094964;28;20206;-77
2021/01/12 10:55:15;;;;;;;7.78;2.92;;;7.90;99.90;;;;;;5109647;28;20605;-77
2021/01/12 10:57:44;;;;;;;7.63;2.50;;;7.90;99.90;;;;;;5094729;28;20212;-77
2021/01/12 11:00:13;;;;;;;7.70;2.47;;;7.90;99.90;;;;;;5097540;28;20201;-77
2021/01/12 11:02:40;;;;;;;7.57;2.30;;;7.80;99.90;;;;;;5095399;28;20259;-77
2021/01/12 11:05:08;;;;;;;8.03;2.00;;;7.80;99.90;;;;;;5094617;28;20202;-78
2021/01/12 11:07:36;;;;;;;6.00;1.73;;;7.80;99.90;;;;;;5112929;28;20240;-77
2021/01/12 11:10:03;;;;;;;11.37;2.03;;;7.80;99.90;;;;;;5104932;28;20236;-77
2021/01/12 11:12:30;;;;;;;5.93;2.00;;;7.70;99.90;;;;;;5097136;28;20206;-77
2021/01/12 11:14:57;;;;;;;7.55;2.05;;;7.70;99.90;;;;;;5105961;28;20206;-77
2021/01/12 11:17:24;;;;;;;9.03;1.90;;;7.80;99.90;;;;;;5094587;28;20565;-77
2021/01/12 11:19:52;;;;;;;8.20;2.17;;;7.80;99.90;;;;;;5101508;28;20250;-77
2021/01/12 11:22:26;;;;;;;9.00;2.38;;;7.70;99.90;;;;;;5114628;28;20201;-77
2021/01/12 11:24:54;;;;;;;9.47;2.10;;;7.80;99.90;;;;;;5115550;28;20190;-77
2021/01/12 11:27:20;;;;;;;9.97;2.00;;;7.80;99.90;;;;;;5114620;28;20227;-78
2021/01/12 11:29:47;;;;;;;9.90;2.10;;;7.80;99.90;;;;;;5114667;28;20194;-77
2021/01/12 11:32:13;;;;;;;5.00;2.10;;;7.80;99.90;;;;;;5114888;28;20288;-77
2021/01/12 11:34:41;;;;;;;8.68;1.83;;;7.80;99.90;;;;;;5097476;28;20356;-77
2021/01/12 11:37:10;;;;;;;4.87;1.37;;;7.70;99.90;;;;;;5094121;28;20202;-78
2021/01/12 11:39:37;;;;;;;6.20;1.53;;;7.60;99.90;;;;;;5096031;28;20194;-77
2021/01/12 11:42:05;;;;;;;3.67;0.93;;;7.40;99.90;;;;;;5093951;28;587199;-76
2021/01/12 11:44:32;;;;;;;7.43;1.20;;;7.30;99.90;;;;;;5115219;28;20660;-77
2021/01/12 11:46:58;;;;;;;4.37;1.00;;;7.30;99.90;;;;;;5095355;28;20278;-77
2021/01/12 11:49:24;;;;;;;4.67;1.13;;;7.30;99.90;;;;;;5095138;28;20209;-76
2021/01/12 11:51:52;;;;;;;6.30;1.10;;;7.30;99.90;;;;;;5095169;28;20293;-77
2021/01/12 11:54:19;;;;;;;4.23;1.17;;;7.40;99.90;;;;;;5095213;28;20221;-76
2021/01/12 11:56:49;;;;;;;5.43;1.50;;;7.40;99.90;;;;;;5109387;28;20205;-76
2021/01/12 11:59:15;;;;;;;9.60;1.63;;;7.50;99.90;;;;;;5095262;28;20213;-76
2021/01/12 12:01:42;;;;;;;3.97;1.60;;;7.60;99.90;;;;;;5094721;28;20210;-76
2021/01/12 12:04:09;;;;;;;6.90;1.80;;;7.70;99.90;;;;;;5095056;28;20292;-76
2021/01/12 12:06:35;;;;;;;3.83;1.00;;;7.50;99.90;;;;;;5105062;28;20196;-76
2021/01/12 12:09:03;;;;;;;3.07;1.20;;;7.50;99.90;;;;;;5099153;28;20206;-76
2021/01/12 12:11:34;;;;;;;7.03;1.80;;;7.60;99.90;;;;;;5102415;28;20208;-76
2021/01/12 12:14:01;;;;;;;8.30;1.20;;;7.70;99.90;;;;;;5114318;28;20190;-77
2021/01/12 12:16:28;;;;;;;4.95;1.63;;;7.90;99.90;;;;;;5101755;28;20202;-76
2021/01/12 12:18:54;;;;;;;3.23;0.90;;;8.00;99.90;;;;;;5101612;28;20198;-77
2021/01/12 12:21:21;;;;;;;4.23;1.40;;;8.10;99.90;;;;;;5114273;28;20272;-76
2021/01/12 12:23:47;;;;;;;10.43;1.43;;;8.10;99.90;;;;;;5103362;28;20216;-76
2021/01/12 12:26:15;;;;;;;3.28;1.20;;;8.20;99.90;;;;;;5094216;28;20204;-76
2021/01/12 12:28:42;;;;;;;5.35;1.50;;;8.00;99.90;;;;;;5094565;28;20230;-77
2021/01/12 12:31:10;;;;;;;6.67;1.27;;;8.00;99.90;;;;;;5094304;28;20247;-76
2021/01/12 12:33:36;;;;;;;9.47;2.07;;;7.70;99.90;;;;;;5094630;28;20205;-76
2021/01/12 12:36:07;;;;;;;6.83;1.63;;;7.50;99.90;;;;;;5094572;28;20285;-77
2021/01/12 12:38:35;;;;;;;5.10;1.63;;;7.50;99.90;;;;;;5107812;28;20198;-76
2021/01/12 12:41:06;;;;;;;6.67;1.93;;;7.50;99.90;;;;;;5093725;28;20234;-76
2021/01/12 12:43:34;;;;;;;6.13;1.43;;;7.50;99.90;;;;;;5114475;28;20657;-76
2021/01/12 12:46:00;;;;;;;7.03;1.60;;;7.40;99.90;;;;;;5101711;28;20198;-76
2021/01/12 12:48:26;;;;;;;5.33;1.80;;;7.30;99.90;;;;;;5094005;28;20241;-77
2021/01/12 12:50:53;;;;;;;6.23;1.87;;;7.40;99.90;;;;;;5093744;28;20679;-77
2021/01/12 12:53:19;;;;;;;8.37;2.17;;;7.50;99.90;;;;;;5094177;28;20198;-77
2021/01/12 12:55:46;;;;;;;8.17;1.30;;;7.60;99.90;;;;;;5093602;28;20198;-77
2021/01/12 12:58:12;;;;;;;4.90;1.45;;;7.90;99.90;;;;;;5094332;28;20206;-77
2021/01/12 13:00:40;;;;;;;9.30;1.55;;;8.10;99.90;;;;;;5107366;28;20202;-77
2021/01/12 13:03:07;;;;;;;3.20;0.90;;;8.20;99.90;;;;;;5093628;28;20538;-77